createdAt,value
2022-12-16T00:01:05.772Z,27.73
2022-12-16T00:03:33.623Z,25.00
2022-12-16T00:06:03.613Z,29.07
2022-12-16T00:08:32.945Z,27.40
2022-12-16T00:11:00.787Z,28.43
2022-12-16T00:13:28.665Z,27.27
2022-12-16T00:15:57.660Z,27.17
2022-12-16T00:18:25.327Z,27.40
2022-12-16T00:20:53.985Z,25.27
2022-12-16T00:23:22.758Z,25.50
2022-12-16T00:25:50.339Z,22.80
2022-12-16T00:28:22.558Z,23.23
2022-12-16T00:30:50.961Z,24.20
2022-12-16T00:33:21.343Z,24.30
2022-12-16T00:35:48.983Z,22.33
2022-12-16T00:38:16.486Z,22.47
2022-12-16T00:40:44.190Z,22.33
2022-12-16T00:43:11.865Z,22.63
2022-12-16T00:45:40.084Z,27.03
2022-12-16T00:48:08.078Z,24.73
2022-12-16T00:50:36.903Z,21.80
2022-12-16T00:53:04.453Z,22.07
2022-12-16T00:55:32.479Z,20.27
2022-12-16T00:57:59.968Z,21.60
2022-12-16T01:00:27.431Z,20.40
2022-12-16T01:02:54.977Z,19.20
2022-12-16T01:05:26.706Z,21.07
2022-12-16T01:07:55.960Z,20.80
2022-12-16T01:10:23.822Z,19.30
2022-12-16T01:12:51.324Z,20.93
2022-12-16T01:15:19.169Z,18.77
2022-12-16T01:17:46.648Z,19.53
2022-12-16T01:20:14.224Z,18.23
2022-12-16T01:22:41.961Z,17.87
2022-12-16T01:25:12.765Z,17.77
2022-12-16T01:27:40.711Z,15.27
2022-12-16T01:30:09.263Z,16.53
2022-12-16T01:32:36.758Z,15.83
2022-12-16T01:35:14.120Z,17.87
2022-12-16T01:37:50.990Z,16.20
2022-12-16T01:40:21.501Z,17.60
2022-12-16T01:42:49.318Z,18.87
2022-12-16T01:45:30.819Z,18.00
2022-12-16T01:47:59.934Z,15.93
2022-12-16T01:50:27.873Z,15.33
2022-12-16T01:52:58.362Z,16.13
2022-12-16T01:55:29.350Z,15.27
2022-12-16T01:57:58.376Z,16.47
2022-12-16T02:00:25.982Z,17.30
2022-12-16T02:02:54.177Z,15.87
2022-12-16T02:05:22.543Z,15.80
2022-12-16T02:07:55.492Z,17.07
2022-12-16T02:10:25.595Z,15.57
2022-12-16T02:12:57.878Z,16.03
2022-12-16T02:15:27.884Z,15.40
2022-12-16T02:17:59.127Z,15.20
2022-12-16T02:20:37.805Z,14.13
2022-12-16T02:23:22.509Z,17.33
2022-12-16T02:26:03.641Z,12.43
2022-12-16T02:28:42.367Z,14.40
2022-12-16T02:31:21.086Z,14.07
2022-12-16T02:33:53.281Z,14.03
2022-12-16T02:36:25.925Z,13.13
2022-12-16T02:38:57.495Z,14.27
2022-12-16T02:41:27.754Z,11.37
2022-12-16T02:43:57.646Z,13.43
2022-12-16T02:46:27.851Z,11.60
2022-12-16T02:48:55.630Z,11.63
2022-12-16T02:51:24.993Z,12.23
2022-12-16T02:53:53.390Z,10.37
2022-12-16T02:56:25.592Z,12.73
2022-12-16T02:58:57.221Z,14.43
2022-12-16T03:01:31.272Z,11.63
2022-12-16T03:04:02.388Z,12.67
2022-12-16T03:06:31.610Z,11.10
2022-12-16T03:09:00.570Z,10.97
2022-12-16T03:11:29.466Z,11.63
2022-12-16T03:13:58.019Z,11.33
2022-12-16T03:16:28.481Z,12.23
2022-12-16T03:18:57.679Z,11.83
2022-12-16T03:21:26.986Z,13.57
2022-12-16T03:23:55.652Z,12.57
2022-12-16T03:26:25.838Z,11.03
2022-12-16T03:28:56.154Z,13.70
2022-12-16T03:31:31.037Z,16.87
2022-12-16T03:34:01.004Z,17.77
2022-12-16T03:36:30.798Z,17.30
2022-12-16T03:38:58.244Z,16.10
2022-12-16T03:41:26.512Z,18.27
2022-12-16T03:43:53.971Z,19.63
2022-12-16T03:46:21.703Z,15.80
2022-12-16T03:48:51.922Z,17.80
2022-12-16T03:51:19.771Z,17.10
2022-12-16T03:53:47.260Z,20.77
2022-12-16T03:56:14.753Z,18.53
2022-12-16T03:58:42.217Z,17.77
2022-12-16T04:01:10.355Z,18.03
2022-12-16T04:03:38.136Z,19.23
2022-12-16T04:06:07.462Z,17.07
2022-12-16T04:08:34.891Z,15.50
2022-12-16T04:11:20.110Z,15.43
2022-12-16T04:14:04.886Z,17.37
2022-12-16T04:16:49.737Z,14.53
2022-12-16T04:19:38.633Z,14.00
2022-12-16T04:22:29.255Z,16.87
2022-12-16T04:24:56.742Z,15.17
2022-12-16T04:27:27.833Z,13.57
2022-12-16T04:30:27.361Z,15.17
2022-12-16T04:33:14.030Z,16.33
2022-12-16T04:35:59.565Z,14.53
2022-12-16T04:38:46.697Z,13.63
2022-12-16T04:41:31.620Z,15.00
2022-12-16T04:44:17.016Z,13.57
2022-12-16T04:47:01.934Z,16.17
2022-12-16T04:49:46.694Z,13.70
2022-12-16T04:52:31.550Z,15.07
2022-12-16T04:55:18.033Z,11.73
2022-12-16T04:58:03.385Z,14.30
2022-12-16T05:00:48.206Z,15.03
2022-12-16T05:03:33.482Z,12.00
2022-12-16T05:06:18.991Z,14.07
2022-12-16T05:09:03.672Z,14.60
2022-12-16T05:11:50.187Z,13.57
2022-12-16T05:14:34.994Z,15.50
2022-12-16T05:17:20.048Z,14.63
2022-12-16T05:20:10.277Z,14.87
2022-12-16T05:22:55.278Z,13.77
2022-12-16T05:25:45.278Z,15.13
2022-12-16T05:28:31.839Z,15.03
2022-12-16T05:31:16.717Z,20.93
2022-12-16T05:34:01.940Z,14.80
2022-12-16T05:36:46.821Z,16.07
2022-12-16T05:39:32.062Z,14.80
2022-12-16T05:42:17.061Z,17.50
2022-12-16T05:45:03.199Z,15.93
2022-12-16T05:47:47.966Z,15.40
2022-12-16T05:50:33.423Z,14.80
2022-12-16T05:53:26.765Z,15.67
2022-12-16T05:56:26.080Z,17.50
2022-12-16T05:59:11.512Z,14.57
2022-12-16T06:01:58.051Z,16.67
2022-12-16T06:04:42.985Z,14.37
2022-12-16T06:07:27.911Z,16.93
2022-12-16T06:10:12.598Z,15.50
2022-12-16T06:12:57.590Z,16.50
2022-12-16T06:15:42.326Z,17.77
2022-12-16T06:18:28.496Z,16.53
2022-12-16T06:21:13.249Z,17.07
2022-12-16T06:23:58.157Z,17.23
2022-12-16T06:26:43.221Z,18.20
2022-12-16T06:29:27.877Z,16.40
2022-12-16T06:32:12.786Z,18.30
2022-12-16T06:35:13.385Z,18.13
2022-12-16T06:37:58.646Z,19.10
2022-12-16T06:40:43.501Z,19.57
2022-12-16T06:43:28.446Z,17.17
2022-12-16T06:46:13.372Z,19.40
2022-12-16T06:48:58.622Z,18.40
2022-12-16T06:51:44.883Z,20.73
2022-12-16T06:54:29.692Z,19.77
2022-12-16T06:57:14.644Z,21.47
2022-12-16T06:59:59.502Z,21.27
2022-12-16T07:02:44.569Z,22.57
2022-12-16T07:05:29.867Z,22.33
2022-12-16T07:08:15.987Z,22.17
2022-12-16T07:11:15.339Z,21.77
2022-12-16T07:14:00.709Z,21.90
2022-12-16T07:16:45.711Z,22.50
2022-12-16T07:19:30.812Z,20.53
2022-12-16T07:22:15.759Z,20.53
2022-12-16T07:25:01.827Z,19.47
2022-12-16T07:27:46.538Z,22.40
2022-12-16T07:30:31.561Z,24.80
2022-12-16T07:33:16.444Z,22.80
2022-12-16T07:36:06.684Z,20.50
2022-12-16T07:38:50.786Z,21.87
2022-12-16T07:41:36.797Z,23.90
2022-12-16T07:44:22.757Z,22.70
2022-12-16T07:47:07.738Z,21.43
2022-12-16T07:49:53.675Z,20.90
2022-12-16T07:52:40.682Z,23.67
2022-12-16T07:55:37.355Z,21.53
2022-12-16T07:58:23.637Z,22.13
2022-12-16T08:01:13.776Z,20.17
2022-12-16T08:03:58.765Z,21.47
2022-12-16T08:06:44.121Z,20.00
2022-12-16T08:09:29.030Z,23.47
2022-12-16T08:12:19.325Z,23.27
2022-12-16T08:15:05.512Z,21.63
2022-12-16T08:17:50.365Z,25.10
2022-12-16T08:20:37.382Z,23.73
2022-12-16T08:23:22.293Z,25.00
2022-12-16T08:26:07.159Z,23.37
2022-12-16T08:28:52.028Z,24.03
2022-12-16T08:31:39.022Z,25.40
2022-12-16T08:34:23.826Z,23.73
2022-12-16T08:37:08.598Z,21.50
2022-12-16T08:40:17.592Z,25.50
2022-12-16T08:42:58.471Z,27.33
2022-12-16T08:45:43.744Z,28.73
2022-12-16T08:48:30.285Z,24.03
2022-12-16T08:51:15.192Z,27.97
2022-12-16T08:54:00.144Z,26.03
2022-12-16T08:56:45.753Z,23.77
2022-12-16T08:59:30.510Z,26.50
2022-12-16T09:02:15.507Z,25.97
2022-12-16T09:05:01.890Z,26.70
2022-12-16T09:07:46.863Z,23.80
2022-12-16T09:10:37.577Z,25.50
2022-12-16T09:13:25.849Z,25.80
2022-12-16T09:16:15.876Z,25.93
2022-12-16T09:19:04.065Z,25.63
2022-12-16T09:21:50.071Z,26.33
2022-12-16T09:24:35.044Z,27.77
2022-12-16T09:27:20.597Z,25.27
2022-12-16T09:30:05.741Z,24.87
2022-12-16T09:32:50.475Z,25.77
2022-12-16T09:35:35.867Z,26.80
2022-12-16T09:38:22.030Z,27.67
2022-12-16T09:41:06.843Z,23.83
2022-12-16T09:43:58.261Z,24.17
2022-12-16T09:46:46.276Z,23.97
2022-12-16T09:49:34.385Z,22.77
2022-12-16T09:52:20.641Z,25.87
2022-12-16T09:55:07.295Z,22.20
2022-12-16T09:57:51.580Z,24.27
2022-12-16T10:00:39.537Z,25.17
2022-12-16T10:03:31.519Z,23.20
2022-12-16T10:06:21.147Z,25.33
2022-12-16T10:09:12.219Z,22.83
2022-12-16T10:12:02.977Z,22.87
2022-12-16T10:14:50.382Z,27.23
2022-12-16T10:17:40.124Z,23.33
2022-12-16T10:20:30.515Z,23.87
2022-12-16T10:23:19.843Z,28.03
2022-12-16T10:26:08.238Z,28.60
2022-12-16T10:29:01.601Z,26.90
2022-12-16T10:31:47.105Z,25.53
2022-12-16T10:34:33.279Z,28.40
2022-12-16T10:37:21.055Z,28.07
2022-12-16T10:40:07.794Z,24.87
2022-12-16T10:42:55.755Z,25.17
2022-12-16T10:45:44.284Z,26.20
2022-12-16T10:48:29.624Z,27.30
2022-12-16T10:51:14.908Z,26.93
2022-12-16T10:53:59.801Z,27.53
2022-12-16T10:56:53.252Z,26.83
2022-12-16T10:59:38.525Z,25.63
2022-12-16T11:02:36.601Z,28.20
2022-12-16T11:05:40.107Z,29.30
2022-12-16T11:08:41.014Z,28.07
2022-12-16T11:11:37.190Z,25.60
2022-12-16T11:15:05.755Z,24.73
2022-12-16T11:17:49.060Z,24.03
2022-12-16T11:20:35.487Z,25.37
2022-12-16T11:23:28.319Z,27.40
2022-12-16T11:26:31.716Z,27.00
2022-12-16T11:29:24.480Z,24.80
2022-12-16T11:32:12.522Z,26.47
2022-12-16T11:35:00.162Z,26.97
2022-12-16T11:37:47.023Z,25.70
2022-12-16T11:40:33.518Z,26.80
2022-12-16T11:43:19.404Z,27.93
2022-12-16T11:46:04.464Z,28.57
2022-12-16T11:48:51.677Z,27.97
2022-12-16T11:51:39.355Z,24.37
2022-12-16T11:54:27.266Z,26.63
2022-12-16T11:57:13.226Z,26.87
2022-12-16T11:59:59.447Z,27.80
2022-12-16T12:02:48.279Z,28.77
2022-12-16T12:05:33.403Z,26.43
2022-12-16T12:08:23.411Z,27.30
2022-12-16T12:11:12.290Z,27.03
2022-12-16T12:14:03.749Z,27.03
2022-12-16T12:16:53.970Z,26.90
2022-12-16T12:19:44.248Z,24.47
2022-12-16T12:22:31.678Z,25.40
2022-12-16T12:25:22.442Z,26.80
2022-12-16T12:28:19.030Z,27.77
2022-12-16T12:31:12.389Z,26.97
2022-12-16T12:34:01.565Z,27.03
2022-12-16T12:36:47.970Z,28.80
2022-12-16T12:39:43.309Z,29.03
2022-12-16T12:42:36.302Z,26.30
2022-12-16T12:45:32.211Z,26.73
2022-12-16T12:48:20.454Z,26.20
2022-12-16T12:51:11.535Z,28.67
2022-12-16T12:53:58.429Z,30.50
2022-12-16T12:56:50.451Z,29.97
2022-12-16T12:59:40.158Z,30.77
2022-12-16T13:02:28.576Z,27.13
2022-12-16T13:05:13.903Z,28.07
2022-12-16T13:07:58.763Z,27.80
2022-12-16T13:10:51.367Z,29.10
2022-12-16T13:13:46.367Z,28.40
2022-12-16T13:16:52.906Z,30.00
2022-12-16T13:19:59.899Z,27.90
2022-12-16T13:22:46.275Z,29.43
2022-12-16T13:25:52.209Z,29.50
2022-12-16T13:28:41.142Z,28.00
2022-12-16T13:31:27.076Z,26.43
2022-12-16T13:34:14.545Z,30.30
2022-12-16T13:37:00.412Z,29.30
2022-12-16T13:39:46.428Z,28.53
2022-12-16T13:42:50.160Z,28.63
2022-12-16T13:45:36.576Z,28.30
2022-12-16T13:48:44.418Z,27.73
2022-12-16T13:52:00.041Z,28.17
2022-12-16T13:54:49.232Z,27.77
2022-12-16T13:57:44.433Z,28.70
2022-12-16T14:00:36.728Z,26.70
2022-12-16T14:03:23.092Z,27.63
2022-12-16T14:06:08.312Z,31.33
2022-12-16T14:08:59.325Z,31.43
2022-12-16T14:11:49.875Z,28.00
2022-12-16T14:14:38.353Z,33.23
2022-12-16T14:17:25.155Z,29.90
2022-12-16T14:20:17.034Z,33.33
2022-12-16T14:23:07.970Z,29.17
2022-12-16T14:25:53.317Z,29.10
2022-12-16T14:28:44.412Z,30.00
2022-12-16T14:31:32.300Z,29.57
2022-12-16T14:34:17.981Z,30.57
2022-12-16T14:37:03.932Z,28.77
2022-12-16T14:39:58.202Z,31.83
2022-12-16T14:42:44.432Z,34.33
2022-12-16T14:45:45.312Z,31.73
2022-12-16T14:48:45.982Z,26.87
2022-12-16T14:51:35.536Z,30.53
2022-12-16T14:54:40.170Z,32.13
2022-12-16T14:57:29.546Z,28.57
2022-12-16T15:00:30.229Z,29.70
2022-12-16T15:03:18.722Z,29.17
2022-12-16T15:06:04.318Z,29.53
2022-12-16T15:08:51.122Z,27.60
2022-12-16T15:11:38.258Z,28.77
2022-12-16T15:14:24.075Z,32.27
2022-12-16T15:17:10.650Z,31.00
2022-12-16T15:20:03.331Z,31.93
2022-12-16T15:22:49.365Z,31.70
2022-12-16T15:25:37.285Z,28.50
2022-12-16T15:28:22.694Z,29.40
2022-12-16T15:31:08.137Z,28.53
2022-12-16T15:33:54.292Z,26.60
2022-12-16T15:36:45.330Z,24.23
2022-12-16T15:39:35.976Z,28.20
2022-12-16T15:42:21.330Z,25.53
2022-12-16T15:45:07.751Z,26.27
2022-12-16T15:47:54.747Z,28.57
2022-12-16T15:50:41.181Z,24.40
2022-12-16T15:53:44.532Z,27.57
2022-12-16T15:56:34.921Z,24.17
2022-12-16T15:59:31.916Z,25.37
2022-12-16T16:02:16.869Z,22.20
2022-12-16T16:05:01.974Z,21.60
2022-12-16T16:07:46.876Z,24.43
2022-12-16T16:10:35.406Z,22.67
2022-12-16T16:13:20.721Z,23.70
2022-12-16T16:16:05.774Z,22.17
2022-12-16T16:18:51.050Z,25.67
2022-12-16T16:21:35.996Z,23.00
2022-12-16T16:24:21.383Z,25.80
2022-12-16T16:27:07.498Z,22.57
2022-12-16T16:29:52.452Z,21.10
2022-12-16T16:32:37.214Z,23.33
2022-12-16T16:35:22.214Z,23.37
2022-12-16T16:38:07.055Z,20.40
2022-12-16T16:40:53.446Z,23.47
2022-12-16T16:43:40.226Z,19.37
2022-12-16T16:46:36.774Z,24.47
2022-12-16T16:49:22.003Z,20.67
2022-12-16T16:52:06.866Z,20.93
2022-12-16T16:54:51.771Z,20.37
2022-12-16T16:57:36.466Z,26.37
2022-12-16T17:00:23.657Z,22.87
2022-12-16T17:03:09.074Z,23.93
2022-12-16T17:05:54.114Z,22.13
2022-12-16T17:08:38.181Z,25.80
2022-12-16T17:11:24.506Z,22.67
2022-12-16T17:14:09.509Z,24.47
2022-12-16T17:16:55.586Z,23.27
2022-12-16T17:19:40.481Z,20.23
2022-12-16T17:22:25.242Z,19.07
2022-12-16T17:25:10.100Z,20.07
2022-12-16T17:27:54.942Z,19.30
2022-12-16T17:30:45.150Z,23.23
2022-12-16T17:33:33.780Z,23.93
2022-12-16T17:36:19.295Z,21.13
2022-12-16T17:39:04.491Z,19.37
2022-12-16T17:41:50.295Z,18.97
2022-12-16T17:44:35.154Z,20.23
2022-12-16T17:47:20.596Z,21.40
2022-12-16T17:50:06.654Z,22.23
2022-12-16T17:52:51.393Z,22.50
2022-12-16T17:55:36.248Z,20.60
2022-12-16T17:58:21.183Z,20.73
2022-12-16T18:01:05.940Z,20.20
2022-12-16T18:03:50.848Z,18.37
2022-12-16T18:06:37.132Z,17.87
2022-12-16T18:09:22.504Z,19.53
2022-12-16T18:12:07.307Z,20.03
2022-12-16T18:14:52.123Z,19.90
2022-12-16T18:17:36.926Z,19.90
2022-12-16T18:20:22.193Z,18.77
2022-12-16T18:23:11.477Z,19.97
2022-12-16T18:25:56.438Z,20.10
2022-12-16T18:28:41.321Z,18.33
2022-12-16T18:31:26.525Z,16.60
2022-12-16T18:34:11.731Z,17.67
2022-12-16T18:36:56.759Z,18.33
2022-12-16T18:39:43.404Z,17.17
2022-12-16T18:42:28.358Z,18.10
2022-12-16T18:45:09.714Z,16.23
2022-12-16T18:47:54.745Z,14.83
2022-12-16T18:50:39.622Z,15.37
2022-12-16T18:53:24.936Z,16.13
2022-12-16T18:56:18.767Z,16.50
2022-12-16T18:59:03.800Z,14.53
2022-12-16T19:01:48.997Z,14.00
2022-12-16T19:04:34.446Z,13.60
2022-12-16T19:07:19.311Z,12.23
2022-12-16T19:10:04.174Z,13.43
2022-12-16T19:13:04.710Z,14.53
2022-12-16T19:15:49.792Z,11.30
2022-12-16T19:18:35.365Z,12.10
2022-12-16T19:21:20.288Z,12.90
2022-12-16T19:24:06.685Z,12.77
2022-12-16T19:26:52.051Z,12.77
2022-12-16T19:29:38.190Z,14.63
2022-12-16T19:32:23.223Z,11.60
2022-12-16T19:35:08.718Z,13.47
2022-12-16T19:40:59.012Z,14.80
2022-12-16T19:43:43.766Z,11.77
2022-12-16T19:46:30.126Z,15.10
2022-12-16T19:49:15.370Z,12.63
2022-12-16T19:52:00.324Z,13.90
2022-12-16T19:54:46.224Z,13.73
2022-12-16T19:57:31.096Z,13.00
2022-12-16T20:00:15.907Z,12.97
2022-12-16T20:03:02.168Z,14.67
2022-12-16T20:05:47.399Z,13.60
2022-12-16T20:08:32.194Z,14.30
2022-12-16T20:11:17.097Z,12.67
2022-12-16T20:14:01.963Z,12.87
2022-12-16T20:16:46.709Z,14.07
2022-12-16T20:19:33.023Z,12.27
2022-12-16T20:22:17.774Z,14.13
2022-12-16T20:25:02.749Z,13.27
2022-12-16T20:27:47.821Z,12.80
2022-12-16T20:30:32.647Z,11.97
2022-12-16T20:33:17.417Z,13.13
2022-12-16T20:36:13.275Z,13.60
2022-12-16T20:38:58.114Z,13.77
2022-12-16T20:41:42.925Z,12.77
2022-12-16T20:44:27.780Z,12.80
2022-12-16T20:47:12.660Z,12.50
2022-12-16T20:49:59.175Z,11.50
2022-12-16T20:52:45.381Z,12.70
2022-12-16T20:55:30.855Z,14.07
2022-12-16T20:58:15.788Z,13.83
2022-12-16T21:01:00.605Z,12.90
2022-12-16T21:03:46.139Z,13.03
2022-12-16T21:06:31.391Z,14.07
2022-12-16T21:09:17.967Z,12.60
2022-12-16T21:12:02.750Z,11.97
2022-12-16T21:14:47.575Z,12.57
2022-12-16T21:17:32.575Z,12.47
2022-12-16T21:20:17.473Z,13.07
2022-12-16T21:23:02.424Z,12.67
2022-12-16T21:25:49.007Z,12.60
2022-12-16T21:28:33.951Z,13.80
2022-12-16T21:31:19.250Z,14.07
2022-12-16T21:34:04.185Z,13.73
2022-12-16T21:36:49.203Z,12.03
2022-12-16T21:39:33.974Z,14.27
2022-12-16T21:42:20.184Z,13.30
2022-12-16T21:45:04.996Z,12.30
2022-12-16T21:47:50.206Z,12.20
2022-12-16T21:50:35.525Z,13.37
2022-12-16T21:53:20.974Z,14.20
2022-12-16T21:56:09.858Z,13.60
2022-12-16T21:58:55.884Z,14.10
2022-12-16T22:01:40.777Z,11.90
2022-12-16T22:04:25.788Z,14.13
2022-12-16T22:07:10.591Z,15.03
2022-12-16T22:10:04.294Z,13.53
2022-12-16T22:12:51.244Z,17.33
2022-12-16T22:15:38.399Z,13.07
2022-12-16T22:18:23.608Z,14.30
2022-12-16T22:21:14.380Z,15.10
2022-12-16T22:23:59.359Z,13.77
2022-12-16T22:26:44.663Z,13.90
2022-12-16T22:29:29.499Z,12.63
2022-12-16T22:32:15.678Z,13.70
2022-12-16T22:35:00.422Z,15.20
2022-12-16T22:36:20.225Z,12.70
2022-12-16T22:37:45.651Z,13.63
2022-12-16T22:40:30.422Z,15.00
2022-12-16T22:43:15.395Z,17.57
2022-12-16T22:46:00.218Z,15.60
2022-12-16T22:48:47.005Z,15.63
2022-12-16T22:51:32.906Z,15.87
2022-12-16T22:54:18.211Z,14.57
2022-12-16T22:57:03.006Z,16.47
2022-12-16T22:59:47.799Z,19.73
2022-12-16T23:02:32.683Z,21.67
2022-12-16T23:05:23.647Z,25.17
2022-12-16T23:08:12.022Z,26.27
2022-12-16T23:10:56.841Z,26.77
2022-12-16T23:13:43.413Z,34.13
2022-12-16T23:16:28.517Z,25.23
2022-12-16T23:19:13.654Z,24.10
2022-12-16T23:21:59.819Z,20.63
2022-12-16T23:24:44.587Z,22.40
2022-12-16T23:27:29.450Z,20.17
2022-12-16T23:30:14.177Z,26.73
2022-12-16T23:32:59.061Z,21.93
2022-12-16T23:35:43.719Z,24.20
2022-12-16T23:38:29.816Z,21.50
2022-12-16T23:41:14.624Z,21.93
2022-12-16T23:43:59.588Z,20.27
2022-12-16T23:46:59.091Z,18.70
2022-12-16T23:49:44.233Z,18.03
2022-12-16T23:52:29.550Z,17.60
2022-12-16T23:55:15.652Z,17.63
2022-12-16T23:58:00.728Z,16.00
